Airfield :







YOU CAN JOIN US ON...

 
LOGIN :

Register | Disclaimer

   EN    FR    IT 

 









Legend :    VFR   Marginal VFR   IFR   Intensive IFR   Very Intensive IFR
Visi :
Ceiling :
>= 8 km
>= 3000ft
5 to 8 km
1000 to 3000 ft
1500m to 5 km
500 to 1000 ft
800 to 1500m
200 to 500 ft
< 800m
< 200 ft
Symbols :   Thunderstorms  Fog  Heavy snow  Heavy precipitations  Wind > 20 kt







- Airport Elevation : 787 ft
- IATA code : RUT


KRUT - Rutland - Southern Vermont Regional

CURRENT METAR :
  • 250056Z AUTO 26010KT 10SM BKN060 07/M04 A2996 RMK AO2 SLP170 T00671039 $

EXPIRED METARs :
  • 242356Z AUTO 25008KT 10SM CLR 07/M04 A2994 RMK AO2 SLP159 T00721044 10083 20061 53008 $
  • 242256Z AUTO 26006KT 10SM CLR 08/M05 A2992 RMK AO2 SLP155 T00781050 $

TAF KRUT
Valid from the 25 at 00:00 until the 26 at 00:00 UTC


242330Z 2500/2524 26007KT P6SM BKN150
FM250200 32007KT P6SM BKN150
FM250600 34006KT P6SM VCSH BKN040
FM251200 32006KT P6SM SCT200
KZBW FIR / North America



MET'MAP, your aeronautical weather chart ! - Copyright ORBIFLY December 2007 - Disclaimer

ORBIFLY MET'MAP TEAM :

Programming & Development : Alexandra Zaïnal
Concept & Development : Baudouin d'Aumeries
Co-Development & Prog : Marc-Olivier Méhu
Technical & hardware support : Manuel Goepfert

Contact : metmap@orbifly.com




SOURCES & CREDITS :

   NOAA